Time;durP1;ratioP1;P1;durP2;ratioP2;P2;SDS_P1;SDS_P2;PMS_P1;PMS_P2;Temp;Humidity;BMP_temperature;BMP_pressure;BME280_temperature;BME280_humidity;BME280_pressure;Samples;Min_cycle;Max_cycle;Signal;HPM_P1;HPM_P2
2021/10/02 00:34:09;;;;;;;0.30;0.30;;;;;;;16.70;68.83;101234.25;5050676;28;20463;-96
2021/10/02 00:36:51;;;;;;;0.30;0.30;;;;;;;16.63;69.44;101239.84;5065428;22;20049;-84
2021/10/02 00:41:10;;;;;;;2.92;0.82;;;;;;;16.67;69.58;101229.91;5050392;28;20108;-84
2021/10/02 00:44:54;;;;;;;0.63;0.63;;;;;;;16.78;68.92;101227.69;5050149;28;20040;-83
2021/10/02 00:47:23;;;;;;;0.10;0.10;;;;;;;16.75;68.93;101238.53;5050488;28;20087;-81
2021/10/02 00:49:55;;;;;;;0.00;0.00;;;;;;;16.72;69.63;101235.94;5049380;28;20029;-84
2021/10/02 00:52:21;;;;;;;4.60;0.63;;;;;;;16.69;69.20;101233.41;5049809;28;20350;-79
2021/10/02 00:54:48;;;;;;;1.38;1.05;;;;;;;16.72;69.29;101237.75;5050188;28;20358;-81
2021/10/02 00:57:16;;;;;;;3.90;0.75;;;;;;;16.69;69.53;101236.09;5050208;28;20029;-81
2021/10/02 00:59:45;;;;;;;0.22;0.22;;;;;;;16.70;69.47;101242.28;5050723;28;20029;-81
2021/10/02 01:13:48;;;;;;;0.10;0.10;;;;;;;16.62;69.71;101251.50;5028150;28;20325;-81
2021/10/02 01:19:40;;;;;;;0.10;0.10;;;;;;;16.70;69.41;101245.84;5112281;27;20387;-79
2021/10/02 01:25:34;;;;;;;0.95;0.93;;;;;;;16.61;69.34;101222.13;5103768;27;20936;-80
2021/10/02 01:28:19;;;;;;;0.10;0.10;;;;;;;16.60;69.08;101204.34;5091334;28;20040;-79
2021/10/02 01:47:26;;;;;;;1.65;0.95;;;;;;;16.55;69.05;101217.91;5096115;28;20115;-92
2021/10/02 01:49:57;;;;;;;0.10;0.10;;;;;;;16.57;68.97;101217.84;5102651;28;20025;-91
2021/10/02 01:52:30;;;;;;;0.10;0.10;;;;;;;16.57;69.01;101209.81;5104793;28;20024;-94
2021/10/02 01:54:59;;;;;;;0.10;0.10;;;;;;;16.53;68.97;101206.38;5090741;28;20178;-93
2021/10/02 01:57:28;;;;;;;0.10;0.10;;;;;;;16.50;68.94;101196.69;5082002;28;20029;-93
2021/10/02 01:59:57;;;;;;;0.10;0.10;;;;;;;16.45;69.02;101201.34;5085433;28;20024;-92
2021/10/02 02:02:29;;;;;;;0.10;0.10;;;;;;;16.40;68.95;101206.00;5084734;28;20115;-92
2021/10/02 02:04:57;;;;;;;0.40;0.40;;;;;;;16.31;68.53;101195.63;5080495;28;20020;-92
2021/10/02 02:07:27;;;;;;;0.10;0.10;;;;;;;16.26;68.67;101198.50;5080246;28;20070;-92
2021/10/02 02:09:56;;;;;;;0.10;0.10;;;;;;;16.21;68.36;101199.59;5105671;28;20035;-93
2021/10/02 02:12:30;;;;;;;0.10;0.10;;;;;;;16.16;68.46;101197.97;5095883;28;20012;-91
2021/10/02 02:15:00;;;;;;;0.10;0.10;;;;;;;16.11;68.54;101199.06;5092666;28;20028;-92
2021/10/02 02:17:28;;;;;;;0.10;0.10;;;;;;;16.05;68.83;101202.88;5082340;28;20050;-91
2021/10/02 02:19:56;;;;;;;1.20;0.35;;;;;;;15.99;68.78;101203.09;5085824;28;20017;-92
2021/10/02 02:22:24;;;;;;;0.10;0.10;;;;;;;15.94;68.95;101203.25;5084270;28;20355;-92
2021/10/02 02:24:50;;;;;;;0.20;0.20;;;;;;;15.90;69.15;101206.97;5081657;28;20501;-91
2021/10/02 02:27:17;;;;;;;0.10;0.10;;;;;;;15.87;69.20;101211.56;5083359;28;20444;-92
2021/10/02 02:29:43;;;;;;;0.30;0.30;;;;;;;15.78;68.97;101208.25;5083898;28;20029;-91
2021/10/02 02:32:10;;;;;;;0.75;0.75;;;;;;;15.80;68.94;101194.81;5089436;28;20028;-91
2021/10/02 02:34:37;;;;;;;0.03;0.03;;;;;;;15.74;68.89;101193.25;5082130;28;20085;-91
2021/10/02 02:37:03;;;;;;;0.22;0.22;;;;;;;15.70;68.69;101188.94;5082180;28;20094;-92
2021/10/02 02:39:30;;;;;;;0.10;0.10;;;;;;;15.63;69.19;101188.28;5081687;28;20053;-92
2021/10/02 02:41:56;;;;;;;0.10;0.10;;;;;;;15.60;68.80;101175.06;5083533;28;20058;-91
2021/10/02 02:44:24;;;;;;;0.05;0.05;;;;;;;15.57;69.00;101182.31;5088369;28;20028;-92
2021/10/02 02:46:57;;;;;;;0.10;0.10;;;;;;;15.56;69.09;101184.09;5070372;28;20020;-91
2021/10/02 02:49:44;;;;;;;0.00;0.00;;;;;;;15.59;68.66;101175.09;5073838;28;20066;-91
2021/10/02 02:52:20;;;;;;;0.10;0.10;;;;;;;15.56;69.11;101175.22;5073219;28;20052;-91
2021/10/02 02:55:07;;;;;;;0.10;0.10;;;;;;;15.55;69.45;101170.81;5084779;28;20024;-90
2021/10/02 02:57:41;;;;;;;0.88;0.82;;;;;;;15.57;69.38;101171.63;5080556;28;20024;-90
2021/10/02 03:00:13;;;;;;;0.10;0.10;;;;;;;15.53;69.66;101166.38;5063559;28;20025;-90
2021/10/02 03:02:46;;;;;;;0.57;0.40;;;;;;;15.55;69.12;101169.00;5087472;28;20028;-92
2021/10/02 03:05:16;;;;;;;0.85;0.85;;;;;;;15.48;69.67;101176.34;5088376;28;20491;-91
2021/10/02 03:07:53;;;;;;;0.10;0.10;;;;;;;15.51;69.47;101176.28;5079019;28;20036;-91
2021/10/02 03:10:20;;;;;;;0.10;0.10;;;;;;;15.46;69.87;101175.53;5078984;28;20389;-91
2021/10/02 03:12:48;;;;;;;0.15;0.15;;;;;;;15.47;69.51;101179.94;5078946;28;20031;-91
2021/10/02 03:15:16;;;;;;;0.00;0.00;;;;;;;15.43;69.84;101181.00;5079089;28;20031;-92
2021/10/02 03:17:46;;;;;;;0.40;0.40;;;;;;;15.39;69.74;101184.72;5076092;28;20024;-90
2021/10/02 03:20:15;;;;;;;0.00;0.00;;;;;;;15.40;69.36;101189.09;5086430;28;20099;-91
2021/10/02 03:22:43;;;;;;;0.10;0.10;;;;;;;15.32;69.82;101184.03;5085955;28;20035;-92
2021/10/02 03:25:11;;;;;;;0.10;0.10;;;;;;;15.32;69.75;101186.69;5083310;28;20113;-93
2021/10/02 03:27:38;;;;;;;0.10;0.10;;;;;;;15.28;69.88;101186.88;5082748;28;20068;-93
2021/10/02 03:30:07;;;;;;;0.73;0.32;;;;;;;15.26;69.80;101196.72;5084429;28;20489;-93
2021/10/02 03:32:33;;;;;;;0.50;0.50;;;;;;;15.23;69.50;101189.69;5083706;28;20028;-93
2021/10/02 03:35:00;;;;;;;0.30;0.30;;;;;;;15.23;69.75;101199.47;5086501;28;20031;-92
2021/10/02 03:37:29;;;;;;;0.20;0.20;;;;;;;15.17;70.32;101193.44;5082514;28;20024;-92
2021/10/02 03:39:55;;;;;;;0.17;0.17;;;;;;;15.15;70.01;101187.28;5085699;28;20142;-92
2021/10/02 03:42:23;;;;;;;0.10;0.10;;;;;;;15.15;70.08;101192.63;5079973;28;20032;-92
2021/10/02 03:44:51;;;;;;;0.00;0.00;;;;;;;15.17;69.79;101184.56;5076121;28;20035;-92
2021/10/02 03:47:20;;;;;;;0.20;0.20;;;;;;;15.10;70.03;101178.53;5085988;28;20024;-90
2021/10/02 03:49:48;;;;;;;0.10;0.10;;;;;;;15.07;70.14;101184.00;5085385;28;20074;-91
2021/10/02 03:52:15;;;;;;;0.10;0.10;;;;;;;15.04;69.19;101192.09;5082306;28;20039;-91
2021/10/02 03:54:42;;;;;;;0.10;0.10;;;;;;;15.05;69.75;101193.84;5082792;28;20419;-92
2021/10/02 03:57:08;;;;;;;0.10;0.10;;;;;;;15.03;69.86;101190.38;5084952;28;20024;-90
2021/10/02 03:59:35;;;;;;;0.38;0.38;;;;;;;15.00;69.42;101190.44;5086938;28;20111;-92
2021/10/02 04:02:01;;;;;;;0.00;0.00;;;;;;;14.97;69.47;101188.75;5083731;28;20035;-92
2021/10/02 04:04:27;;;;;;;0.30;0.30;;;;;;;14.97;69.79;101187.91;5083274;28;20052;-92
2021/10/02 04:06:53;;;;;;;0.82;0.55;;;;;;;14.97;69.64;101182.56;5084796;28;20036;-92
2021/10/02 04:09:20;;;;;;;0.10;0.10;;;;;;;14.95;69.53;101184.41;5086257;28;20105;-92
2021/10/02 04:11:46;;;;;;;0.55;0.55;;;;;;;14.91;69.52;101182.75;5085381;28;20028;-91
2021/10/02 04:14:13;;;;;;;0.10;0.10;;;;;;;14.84;69.49;101185.63;5081777;28;20029;-92
2021/10/02 04:16:39;;;;;;;0.10;0.10;;;;;;;14.85;69.43;101183.81;5075178;28;20033;-90
2021/10/02 04:19:05;;;;;;;0.10;0.10;;;;;;;14.81;69.74;101183.03;5081930;28;20052;-93
2021/10/02 04:21:31;;;;;;;0.13;0.13;;;;;;;14.82;69.44;101187.47;5081809;28;20028;-93
2021/10/02 04:23:58;;;;;;;0.10;0.10;;;;;;;14.81;69.57;101183.03;5083740;28;20059;-90
2021/10/02 04:26:24;;;;;;;0.05;0.05;;;;;;;14.80;69.49;101181.28;5085046;28;20474;-92
2021/10/02 04:28:50;;;;;;;0.10;0.10;;;;;;;14.81;69.29;101179.50;5083330;28;20086;-90
2021/10/02 04:31:26;;;;;;;0.10;0.10;;;;;;;14.78;69.24;101169.81;5082121;28;20532;-91
2021/10/02 04:33:52;;;;;;;0.10;0.10;;;;;;;14.73;69.56;101169.09;5082577;28;20032;-90
2021/10/02 04:36:18;;;;;;;0.10;0.10;;;;;;;14.69;69.75;101164.75;5085284;28;20026;-90
2021/10/02 04:38:45;;;;;;;0.00;0.00;;;;;;;14.67;69.38;101174.63;5083954;28;20551;-91
2021/10/02 04:41:11;;;;;;;0.10;0.10;;;;;;;14.68;69.19;101171.06;5081169;28;20454;-90
2021/10/02 04:43:41;;;;;;;0.10;0.10;;;;;;;14.67;69.23;101174.63;5081467;28;20060;-91
2021/10/02 04:46:09;;;;;;;1.65;0.75;;;;;;;14.60;69.93;101173.03;5074584;28;20654;-91
2021/10/02 04:48:37;;;;;;;0.10;0.10;;;;;;;14.56;69.53;101175.78;5083838;28;20039;-91
2021/10/02 04:51:03;;;;;;;0.10;0.10;;;;;;;14.55;69.80;101166.06;5089554;28;20111;-91
2021/10/02 04:53:30;;;;;;;0.20;0.20;;;;;;;14.56;69.76;101165.13;5086118;28;20482;-92
2021/10/02 04:55:59;;;;;;;0.10;0.10;;;;;;;14.57;69.77;101161.53;5081682;28;20064;-92
2021/10/02 04:58:26;;;;;;;0.10;0.10;;;;;;;14.57;70.02;101161.53;5063783;28;20029;-92
2021/10/02 05:00:52;;;;;;;0.30;0.30;;;;;;;14.58;70.15;101170.44;5067084;28;20359;-91
2021/10/02 05:03:18;;;;;;;0.10;0.10;;;;;;;14.60;70.27;101165.03;5086101;28;20024;-90
2021/10/02 05:05:45;;;;;;;0.20;0.20;;;;;;;14.65;70.07;101166.66;5081574;28;20043;-91
2021/10/02 05:08:11;;;;;;;0.10;0.10;;;;;;;14.68;70.12;101160.38;5083951;28;20030;-91
2021/10/02 05:10:39;;;;;;;0.20;0.20;;;;;;;14.70;70.32;101163.84;5084379;28;20023;-90
2021/10/02 05:13:05;;;;;;;0.10;0.10;;;;;;;14.69;70.36;101170.09;5081035;28;20435;-91
2021/10/02 05:15:32;;;;;;;0.15;0.15;;;;;;;14.63;70.77;101172.94;5080828;28;20024;-91
2021/10/02 05:17:59;;;;;;;0.10;0.10;;;;;;;14.66;70.74;101175.53;5082335;28;20025;-90
2021/10/02 05:20:26;;;;;;;0.10;0.10;;;;;;;14.64;70.93;101174.69;5084725;28;20469;-91
2021/10/02 05:22:52;;;;;;;0.10;0.10;;;;;;;14.68;70.79;101171.06;5081886;28;20056;-87
2021/10/02 05:25:18;;;;;;;0.20;0.20;;;;;;;14.71;70.61;101169.13;5075836;28;20090;-90
2021/10/02 05:27:44;;;;;;;0.63;0.63;;;;;;;14.74;70.63;101170.81;5080842;28;20035;-91
2021/10/02 05:30:11;;;;;;;0.40;0.40;;;;;;;14.77;70.85;101170.75;5084306;28;20059;-91
2021/10/02 05:32:37;;;;;;;0.25;0.25;;;;;;;14.80;70.81;101170.63;5084702;28;20039;-91
2021/10/02 05:35:04;;;;;;;1.02;0.80;;;;;;;14.86;70.90;101177.56;5071910;28;20082;-91
2021/10/02 05:37:30;;;;;;;0.47;0.47;;;;;;;14.86;70.49;101177.56;5080288;28;20111;-92
2021/10/02 05:39:56;;;;;;;2.10;1.48;;;;;;;14.88;70.66;101170.41;5082804;28;20025;-91
2021/10/02 05:42:22;;;;;;;0.10;0.10;;;;;;;14.87;70.71;101161.50;5084510;28;20483;-91
2021/10/02 05:44:48;;;;;;;0.70;0.70;;;;;;;14.87;71.05;101165.97;5077325;28;20036;-89
2021/10/02 05:47:15;;;;;;;0.10;0.10;;;;;;;14.81;70.72;101167.03;5081209;28;20050;-90
2021/10/02 05:49:41;;;;;;;1.08;0.75;;;;;;;14.82;70.47;101168.78;5079864;28;20036;-90
2021/10/02 05:52:09;;;;;;;0.15;0.15;;;;;;;14.77;70.50;101165.41;5082219;28;20032;-91
2021/10/02 05:54:37;;;;;;;0.17;0.17;;;;;;;14.78;70.61;101159.16;5083836;28;20033;-90
2021/10/02 05:57:03;;;;;;;0.45;0.45;;;;;;;14.77;70.54;101157.41;5080045;28;20031;-91
2021/10/02 05:59:29;;;;;;;0.20;0.20;;;;;;;14.79;70.38;101157.34;5079589;28;20020;-89
2021/10/02 06:01:55;;;;;;;0.30;0.30;;;;;;;14.78;70.46;101164.50;5084839;28;20060;-91
2021/10/02 06:04:22;;;;;;;0.43;0.43;;;;;;;14.76;70.70;101162.78;5074370;28;20024;-90
2021/10/02 06:06:48;;;;;;;0.15;0.15;;;;;;;14.77;70.29;101178.75;5082400;28;20028;-90
2021/10/02 06:09:14;;;;;;;0.28;0.28;;;;;;;14.71;70.83;101177.13;5080129;28;20025;-89
2021/10/02 06:11:40;;;;;;;0.10;0.10;;;;;;;14.71;70.73;101179.78;5080040;28;20108;-91
2021/10/02 06:14:07;;;;;;;0.20;0.20;;;;;;;14.72;70.63;101178.88;5080900;28;20060;-92
2021/10/02 06:16:36;;;;;;;0.10;0.10;;;;;;;14.71;70.74;101176.28;5088201;28;20024;-91
2021/10/02 06:19:03;;;;;;;0.30;0.30;;;;;;;14.71;71.03;101177.13;5079751;28;20048;-91
2021/10/02 06:21:29;;;;;;;0.65;0.65;;;;;;;14.72;70.44;101175.34;5081465;28;20084;-91
2021/10/02 06:23:59;;;;;;;0.10;0.10;;;;;;;14.73;70.30;101179.78;5085202;28;20029;-87
2021/10/02 06:26:27;;;;;;;0.20;0.20;;;;;;;14.74;70.57;101176.16;5088436;28;20443;-91
2021/10/02 06:28:54;;;;;;;0.10;0.10;;;;;;;14.73;70.19;101174.44;5084746;28;20032;-91
2021/10/02 06:31:21;;;;;;;0.20;0.20;;;;;;;14.71;70.44;101176.28;5083195;28;20009;-94
2021/10/02 06:33:48;;;;;;;0.10;0.10;;;;;;;14.63;70.62;101168.50;5085349;28;20066;-94
2021/10/02 06:36:15;;;;;;;0.20;0.20;;;;;;;14.63;70.68;101173.81;5084313;28;20028;-92
2021/10/02 06:38:41;;;;;;;0.85;0.85;;;;;;;14.65;70.54;101176.47;5083854;28;20111;-91
2021/10/02 06:41:08;;;;;;;0.10;0.10;;;;;;;14.70;70.38;101169.19;5079344;28;20097;-90
2021/10/02 06:43:34;;;;;;;0.47;0.47;;;;;;;14.72;70.42;101162.88;5072064;28;20364;-90
2021/10/02 06:46:02;;;;;;;0.17;0.17;;;;;;;14.70;70.67;101169.19;5079115;28;20383;-92
2021/10/02 06:48:28;;;;;;;0.13;0.13;;;;;;;14.73;70.39;101163.78;5075204;28;20021;-92
2021/10/02 06:50:55;;;;;;;0.20;0.20;;;;;;;14.72;70.49;101168.22;5073131;28;20024;-89
2021/10/02 06:53:22;;;;;;;0.13;0.13;;;;;;;14.75;70.50;101153.03;5076289;28;20021;-90
2021/10/02 06:55:48;;;;;;;0.20;0.20;;;;;;;14.80;70.48;101159.09;5077655;28;20043;-88
2021/10/02 06:58:15;;;;;;;0.13;0.13;;;;;;;14.85;70.31;101151.81;5067318;28;20107;-93
2021/10/02 07:00:41;;;;;;;6.47;0.98;;;;;;;14.90;70.38;101149.84;5070638;28;20025;-92
2021/10/02 07:03:07;;;;;;;0.20;0.20;;;;;;;14.93;70.43;101140.88;5081794;28;20072;-91
2021/10/02 07:05:34;;;;;;;0.10;0.10;;;;;;;14.97;70.42;101140.72;5083785;28;20509;-93
2021/10/02 07:08:00;;;;;;;0.30;0.30;;;;;;;15.04;70.45;101133.38;5083144;28;20050;-91
2021/10/02 07:10:26;;;;;;;0.95;0.95;;;;;;;15.07;70.29;101141.28;5084043;28;20052;-92
2021/10/02 07:12:53;;;;;;;0.52;0.52;;;;;;;15.12;70.46;101136.66;5080602;28;20082;-92
2021/10/02 07:15:21;;;;;;;0.47;0.47;;;;;;;15.18;70.41;101140.94;5082512;28;20043;-93
2021/10/02 07:17:47;;;;;;;0.85;0.85;;;;;;;15.19;70.46;101127.53;5084163;28;20537;-90
2021/10/02 07:20:14;;;;;;;0.98;0.80;;;;;;;15.22;70.47;101131.03;5081210;28;20036;-91
2021/10/02 07:22:42;;;;;;;0.82;0.50;;;;;;;15.29;70.32;101129.88;5081850;28;20024;-92
2021/10/02 07:25:12;;;;;;;0.20;0.20;;;;;;;15.36;70.19;101120.72;5081574;28;20033;-94
2021/10/02 07:27:40;;;;;;;0.10;0.10;;;;;;;15.37;70.33;101122.47;5079981;28;20036;-92
2021/10/02 07:30:11;;;;;;;0.00;0.00;;;;;;;15.45;70.05;101117.75;5069586;28;20016;-92
2021/10/02 07:32:38;;;;;;;0.10;0.10;;;;;;;15.42;70.09;101125.84;5081493;28;20016;-93
2021/10/02 07:35:05;;;;;;;0.25;0.25;;;;;;;15.45;70.17;101120.41;5089106;28;20513;-92
2021/10/02 07:37:32;;;;;;;0.45;0.45;;;;;;;15.49;69.93;101116.69;5079115;28;20489;-88
2021/10/02 07:39:58;;;;;;;0.52;0.52;;;;;;;15.48;70.00;101124.75;5088263;28;20067;-95
2021/10/02 07:42:25;;;;;;;0.10;0.10;;;;;;;15.51;69.93;101127.31;5082513;28;20024;-96
2021/10/02 07:44:58;;;;;;;0.20;0.20;;;;;;;15.52;69.79;101119.22;5092102;28;20119;-94
2021/10/02 07:47:25;;;;;;;0.85;0.85;;;;;;;15.56;69.67;101116.47;5079036;28;20042;-95
2021/10/02 07:49:51;;;;;;;0.70;0.70;;;;;;;15.51;69.51;101112.19;5087461;28;20036;-94
2021/10/02 07:52:20;;;;;;;4.47;2.08;;;;;;;15.59;69.58;101103.88;5080379;28;20513;-95
2021/10/02 07:54:49;;;;;;;0.13;0.13;;;;;;;15.59;69.47;101111.88;5084456;28;20084;-94
2021/10/02 07:57:17;;;;;;;0.20;0.20;;;;;;;15.64;69.53;101107.25;5088726;28;20395;-96
2021/10/02 07:59:45;;;;;;;0.10;0.10;;;;;;;15.66;69.09;101112.53;5096173;28;20106;-96
2021/10/02 08:02:16;;;;;;;0.40;0.40;;;;;;;15.78;69.07;101112.06;5081072;28;20059;-96
2021/10/02 08:04:43;;;;;;;0.88;0.88;;;;;;;15.75;69.00;101112.19;5083985;28;20029;-91
2021/10/02 08:07:10;;;;;;;0.15;0.15;;;;;;;15.70;68.58;101119.47;5079923;28;20020;-91
2021/10/02 08:09:36;;;;;;;0.10;0.10;;;;;;;15.78;68.64;101112.06;5094356;28;20031;-96
2021/10/02 08:12:03;;;;;;;0.47;0.47;;;;;;;15.82;68.45;101115.53;5079968;28;20024;-95
2021/10/02 08:14:29;;;;;;;0.38;0.38;;;;;;;15.87;68.99;101120.72;5074651;28;20078;-93
2021/10/02 08:16:57;;;;;;;0.82;0.80;;;;;;;15.91;68.59;101108.97;5077245;28;20521;-91
2021/10/02 08:19:23;;;;;;;0.20;0.20;;;;;;;15.97;68.06;101095.38;5084281;28;20033;-95
2021/10/02 08:21:51;;;;;;;0.30;0.30;;;;;;;15.94;67.45;101091.03;5082864;28;20440;-94
2021/10/02 08:24:19;;;;;;;0.32;0.32;;;;;;;16.04;67.90;101091.53;5084211;28;20437;-96
2021/10/02 08:26:50;;;;;;;0.10;0.10;;;;;;;16.01;67.08;101088.97;5087089;28;20062;-94
2021/10/02 08:29:16;;;;;;;0.55;0.55;;;;;;;16.04;66.67;101087.97;5077908;28;20033;-93
2021/10/02 08:31:42;;;;;;;0.10;0.10;;;;;;;16.05;66.75;101081.69;5081947;28;20055;-96
2021/10/02 08:34:09;;;;;;;0.22;0.22;;;;;;;16.07;67.50;101091.41;5076811;28;20036;-95
2021/10/02 08:36:35;;;;;;;0.20;0.20;;;;;;;16.05;66.57;101087.94;5087957;28;20028;-95
2021/10/02 08:39:01;;;;;;;0.63;0.63;;;;;;;16.05;66.27;101077.25;5076928;28;20078;-95
2021/10/02 08:41:28;;;;;;;0.47;0.47;;;;;;;16.07;66.25;101070.00;5084863;28;20439;-94
2021/10/02 08:43:54;;;;;;;0.80;0.80;;;;;;;16.09;66.15;101086.03;5081980;28;20051;-95
2021/10/02 08:46:21;;;;;;;0.20;0.20;;;;;;;16.26;67.13;101079.97;5084461;28;20032;-95
2021/10/02 08:51:52;;;;;;;0.50;0.50;;;;;;;16.49;66.42;101076.38;5069924;28;20432;-93
2021/10/02 08:54:19;;;;;;;0.22;0.22;;;;;;;16.60;66.44;101071.47;5062370;28;20048;-93
2021/10/02 08:56:48;;;;;;;1.77;0.95;;;;;;;16.66;65.52;101067.69;5054771;28;20408;-91
2021/10/02 08:59:15;;;;;;;0.10;0.10;;;;;;;16.62;63.75;101061.56;5059551;28;20092;-88
2021/10/02 09:01:45;;;;;;;0.10;0.10;;;;;;;16.65;63.56;101061.44;5057533;28;20033;-96
2021/10/02 09:04:11;;;;;;;0.57;0.52;;;;;;;16.64;63.32;101056.16;5057330;28;20083;-94
2021/10/02 09:06:38;;;;;;;0.10;0.10;;;;;;;16.68;63.47;101057.75;5055368;28;20411;-95
2021/10/02 09:09:07;;;;;;;0.20;0.20;;;;;;;16.74;63.68;101043.25;5059509;28;20509;-94
2021/10/02 09:11:34;;;;;;;0.20;0.20;;;;;;;16.81;64.26;101044.75;5058623;28;20024;-95
2021/10/02 09:14:00;;;;;;;3.30;2.17;;;;;;;16.94;64.94;101024.56;5061259;28;20025;-95
2021/10/02 09:16:27;;;;;;;0.30;0.30;;;;;;;16.94;64.87;101029.91;5056070;28;20060;-94
2021/10/02 09:18:53;;;;;;;3.38;1.38;;;;;;;16.97;63.17;101023.53;5061629;28;20029;-94
2021/10/02 09:21:19;;;;;;;2.40;0.95;;;;;;;17.19;63.59;101022.63;5068632;28;20032;-94
2021/10/02 09:23:48;;;;;;;0.43;0.43;;;;;;;17.33;63.26;101017.47;5053675;28;20029;-94
2021/10/02 09:26:16;;;;;;;0.25;0.25;;;;;;;17.43;62.72;101017.94;5054670;28;20104;-96
2021/10/02 09:28:47;;;;;;;1.75;1.65;;;;;;;17.50;62.17;101007.81;5064004;28;20092;-96
2021/10/02 09:31:16;;;;;;;0.80;0.65;;;;;;;17.66;62.97;101016.88;5051740;28;20029;-95
2021/10/02 09:33:46;;;;;;;0.10;0.10;;;;;;;17.77;63.07;101009.19;5053587;28;20037;-95
2021/10/02 09:36:27;;;;;;;2.10;1.92;;;;;;;17.85;62.62;101010.66;5055640;28;20029;-92
2021/10/02 09:38:54;;;;;;;0.30;0.30;;;;;;;17.87;62.66;101003.38;5055556;28;20037;-86
2021/10/02 09:41:22;;;;;;;1.00;1.00;;;;;;;18.04;62.35;100999.94;5051720;28;20021;-88
2021/10/02 09:43:51;;;;;;;0.30;0.28;;;;;;;18.09;62.12;101001.44;5065084;28;20490;-91
2021/10/02 09:46:30;;;;;;;0.20;0.20;;;;;;;18.18;61.36;100993.88;5064779;28;20021;-89
2021/10/02 09:48:56;;;;;;;0.13;0.13;;;;;;;18.21;61.10;100985.69;5065240;28;20055;-90
2021/10/02 09:51:39;;;;;;;0.10;0.10;;;;;;;18.30;60.53;100979.00;5062962;28;20120;-94
2021/10/02 09:54:30;;;;;;;2.20;1.75;;;;;;;18.28;60.72;100987.13;5067262;28;20032;-96
2021/10/02 09:57:16;;;;;;;0.10;0.10;;;;;;;18.41;60.51;100982.00;5057799;28;20072;-91
2021/10/02 09:59:42;;;;;;;0.10;0.10;;;;;;;18.26;61.15;100978.28;5054872;28;20036;-95
2021/10/02 10:02:18;;;;;;;0.20;0.20;;;;;;;18.34;60.99;100970.69;5076231;28;20037;-86
2021/10/02 10:04:55;;;;;;;0.20;0.20;;;;;;;18.42;60.53;100967.66;5041360;28;20037;-94
2021/10/02 10:07:22;;;;;;;0.10;0.10;;;;;;;18.41;61.43;100964.09;5052329;28;20036;-94
2021/10/02 10:12:43;;;;;;;0.10;0.10;;;;;;;18.49;60.71;100968.19;5090488;27;20389;-90
2021/10/02 10:15:31;;;;;;;0.20;0.20;;;;;;;18.46;60.15;100965.69;5062609;28;20037;-94
2021/10/02 10:17:58;;;;;;;0.57;0.57;;;;;;;18.38;59.88;100961.56;5068732;28;20032;-93
2021/10/02 10:20:34;;;;;;;0.68;0.68;;;;;;;18.37;60.00;100956.28;5060796;28;20064;-87
2021/10/02 10:23:11;;;;;;;1.42;1.42;;;;;;;18.40;59.35;100943.56;5058011;28;20468;-95
2021/10/02 10:25:56;;;;;;;0.70;0.70;;;;;;;18.46;59.77;100939.72;5046035;28;20100;-92
2021/10/02 10:28:24;;;;;;;0.35;0.35;;;;;;;18.37;60.80;100934.84;5067952;28;20395;-83
2021/10/02 10:30:51;;;;;;;0.35;0.35;;;;;;;18.36;61.04;100925.91;5056654;28;20029;-83
2021/10/02 10:33:20;;;;;;;0.20;0.20;;;;;;;18.32;61.54;100928.81;5068481;28;20043;-91
2021/10/02 10:35:49;;;;;;;0.10;0.10;;;;;;;18.50;61.05;100921.66;5078229;28;20036;-89
2021/10/02 10:38:20;;;;;;;0.10;0.10;;;;;;;18.31;59.82;100919.91;5073276;28;20090;-96
2021/10/02 10:40:47;;;;;;;0.55;0.55;;;;;;;18.40;60.70;100916.75;5054765;28;20029;-86
2021/10/02 10:43:14;;;;;;;0.73;0.73;;;;;;;18.54;60.72;100907.13;5052416;28;20471;-92
2021/10/02 10:45:41;;;;;;;0.30;0.30;;;;;;;18.48;59.91;100915.47;5054000;28;20388;-92
2021/10/02 10:48:09;;;;;;;0.50;0.50;;;;;;;18.49;59.75;100902.00;5052621;28;20033;-93
2021/10/02 10:50:37;;;;;;;0.10;0.10;;;;;;;18.52;59.93;100898.31;5059715;28;20033;-92
2021/10/02 10:53:10;;;;;;;0.17;0.17;;;;;;;18.67;59.79;100892.09;5063305;28;20032;-95
2021/10/02 10:55:55;;;;;;;0.10;0.10;;;;;;;18.80;60.19;100891.44;5066832;28;20479;-96
2021/10/02 10:58:24;;;;;;;0.40;0.40;;;;;;;18.69;59.66;100884.84;5057815;28;20079;-96
2021/10/02 11:00:51;;;;;;;0.20;0.20;;;;;;;18.73;59.02;100875.69;5067788;28;20094;-96
2021/10/02 11:06:17;;;;;;;0.63;0.63;;;;;;;18.95;59.88;100863.78;5089601;27;20422;-89
2021/10/02 11:09:02;;;;;;;0.45;0.45;;;;;;;19.04;58.91;100862.41;5074565;28;20028;-85
2021/10/02 11:11:53;;;;;;;0.68;0.35;;;;;;;19.11;58.24;100854.91;5060448;28;20036;-92
2021/10/02 11:14:23;;;;;;;0.15;0.15;;;;;;;18.96;59.17;100846.75;5048789;28;20041;-87
2021/10/02 11:17:05;;;;;;;0.32;0.32;;;;;;;18.95;58.99;100849.50;5053929;28;20542;-89
2021/10/02 11:25:15;;;;;;;0.20;0.20;;;;;;;19.03;58.30;100845.44;5090111;27;20403;-89
2021/10/02 11:27:41;;;;;;;0.20;0.20;;;;;;;19.11;58.75;100842.34;5085882;28;20065;-86
2021/10/02 11:30:17;;;;;;;0.80;0.80;;;;;;;19.27;57.81;100847.72;5088284;28;20470;-85
2021/10/02 11:32:44;;;;;;;0.40;0.40;;;;;;;19.24;57.42;100837.16;5068957;28;20078;-88
2021/10/02 11:38:35;;;;;;;0.38;0.38;;;;;;;19.35;57.72;100834.72;5116071;27;20402;-95
2021/10/02 11:41:20;;;;;;;0.28;0.28;;;;;;;19.35;56.73;100818.59;5108638;28;20035;-94
2021/10/02 11:43:56;;;;;;;0.73;0.60;;;;;;;19.52;56.65;100801.47;5111352;28;20033;-93
2021/10/02 11:46:25;;;;;;;1.38;0.57;;;;;;;19.60;57.01;100795.69;5107860;28;20052;-95
2021/10/02 11:48:52;;;;;;;0.22;0.22;;;;;;;19.52;56.56;100789.88;5107467;28;20044;-96
2021/10/02 11:51:25;;;;;;;0.28;0.28;;;;;;;19.53;55.63;100778.19;5107988;28;20020;-96
2021/10/02 11:54:12;;;;;;;0.10;0.10;;;;;;;19.76;56.88;100784.88;5100889;28;20032;-96
2021/10/02 11:56:42;;;;;;;0.10;0.10;;;;;;;19.75;56.70;100760.78;5101661;28;20051;-96
2021/10/02 11:59:12;;;;;;;0.25;0.25;;;;;;;19.93;55.59;100753.47;5099332;28;20048;-96
2021/10/02 12:01:42;;;;;;;0.10;0.10;;;;;;;20.04;55.51;100741.09;5103685;28;20102;-96
2021/10/02 12:04:11;;;;;;;0.10;0.10;;;;;;;20.20;54.89;100735.63;5101219;28;20157;-96
2021/10/02 12:06:40;;;;;;;0.20;0.20;;;;;;;20.37;54.47;100714.84;5099169;28;20032;-96
2021/10/02 12:09:13;;;;;;;0.20;0.20;;;;;;;20.57;53.31;100713.56;5105155;28;20378;-96
2021/10/02 12:11:42;;;;;;;0.93;0.85;;;;;;;20.65;53.81;100719.34;5106101;28;20028;-85
2021/10/02 12:14:11;;;;;;;0.10;0.10;;;;;;;20.36;53.11;100711.31;5102544;28;20043;-96
2021/10/02 12:16:37;;;;;;;0.20;0.20;;;;;;;20.45;53.44;100707.16;5106081;28;20095;-92
2021/10/02 12:22:05;;;;;;;0.10;0.10;;;;;;;20.24;54.68;100695.94;5058121;28;20403;-95
2021/10/02 12:24:38;;;;;;;0.00;0.00;;;;;;;20.13;54.72;100701.13;5051636;28;20064;-96
2021/10/02 12:29:59;;;;;;;0.25;0.25;;;;;;;20.01;55.86;100686.63;5074138;28;20413;-94
2021/10/02 12:32:28;;;;;;;1.38;0.95;;;;;;;20.00;57.04;100691.16;5055689;28;20060;-93
2021/10/02 12:35:00;;;;;;;0.10;0.10;;;;;;;19.96;56.11;100678.84;5054497;28;20472;-94
2021/10/02 12:37:27;;;;;;;;;;;;;;;20.05;56.56;100677.41;5053760;28;20464;-94
2021/10/02 12:39:58;;;;;;;0.10;0.10;;;;;;;19.90;56.85;100663.09;5053055;28;19977;-94
2021/10/02 12:42:48;;;;;;;0.10;0.10;;;;;;;19.75;56.97;100655.94;5051452;28;20028;-94
2021/10/02 12:45:17;;;;;;;0.10;0.10;;;;;;;19.78;57.94;100655.75;5050370;28;20497;-94
2021/10/02 12:47:49;;;;;;;0.10;0.10;;;;;;;19.77;57.06;100643.28;5050481;28;20028;-94
2021/10/02 12:50:17;;;;;;;0.10;0.10;;;;;;;19.68;57.32;100640.19;5050649;28;20033;-93
2021/10/02 12:52:45;;;;;;;0.20;0.20;;;;;;;19.66;58.34;100627.81;5050467;28;20476;-93
2021/10/02 12:55:15;;;;;;;1.58;1.48;;;;;;;19.47;58.22;100622.72;5050505;28;20044;-94
2021/10/02 12:57:43;;;;;;;13.18;1.75;;;;;;;19.46;58.87;100615.59;5056462;28;20044;-93
2021/10/02 13:00:20;;;;;;;0.10;0.10;;;;;;;19.47;59.62;100609.28;5055138;28;20029;-93
2021/10/02 13:02:49;;;;;;;0.10;0.10;;;;;;;19.35;60.19;100603.69;5055749;28;20029;-94
2021/10/02 13:05:19;;;;;;;0.10;0.10;;;;;;;19.34;59.83;100603.75;5054263;28;20090;-93
2021/10/02 13:07:56;;;;;;;0.10;0.10;;;;;;;19.19;59.76;100600.19;5053619;28;20025;-93